Time;durP1;ratioP1;P1;durP2;ratioP2;P2;SDS_P1;SDS_P2;PMS_P1;PMS_P2;Temp;Humidity;BMP_temperature;BMP_pressure;BME280_temperature;BME280_humidity;BME280_pressure;Samples;Min_cycle;Max_cycle;Signal;HPM_P1;HPM_P2
2022/05/14 00:01:44;;;;;;;8.68;5.07;;;21.70;90.40;;;;;;5053252;28;20560;-71
2022/05/14 00:04:12;;;;;;;8.18;5.13;;;21.70;90.50;;;;;;5021670;28;20498;-72
2022/05/14 00:06:39;;;;;;;9.05;4.68;;;21.70;90.60;;;;;;5033765;28;20115;-72
2022/05/14 00:09:07;;;;;;;10.00;5.00;;;21.60;90.80;;;;;;5024250;28;20053;-71
2022/05/14 00:14:22;;;;;;;8.32;5.43;;;21.50;91.10;;;;;;5052142;28;20177;-72
2022/05/14 00:16:50;;;;;;;7.88;4.78;;;21.50;91.20;;;;;;5052663;28;20041;-72
2022/05/14 00:19:19;;;;;;;9.23;5.82;;;21.40;91.40;;;;;;5035302;28;20063;-72
2022/05/14 00:21:46;;;;;;;9.48;5.65;;;21.30;91.50;;;;;;5036151;28;20569;-73
2022/05/14 00:24:14;;;;;;;12.07;5.93;;;21.30;91.70;;;;;;5023332;28;20045;-72
2022/05/14 00:26:42;;;;;;;11.00;5.15;;;21.30;91.80;;;;;;5033286;28;20056;-71
2022/05/14 00:29:10;;;;;;;13.55;5.60;;;21.30;92.00;;;;;;5028269;28;20551;-71
2022/05/14 00:31:38;;;;;;;7.45;5.30;;;21.30;92.00;;;;;;5052280;28;20056;-71
2022/05/14 00:34:05;;;;;;;8.45;5.10;;;21.30;92.00;;;;;;5015979;28;20045;-71
2022/05/14 00:36:34;;;;;;;11.00;5.80;;;21.30;92.10;;;;;;5041578;28;20044;-72
2022/05/14 00:39:02;;;;;;;7.45;4.35;;;21.40;92.20;;;;;;5051267;28;20074;-72
2022/05/14 00:41:30;;;;;;;8.63;5.43;;;21.40;92.20;;;;;;5070513;28;20037;-73
2022/05/14 00:43:59;;;;;;;9.60;5.13;;;21.40;92.30;;;;;;5048166;28;20045;-71
2022/05/14 00:46:32;;;;;;;10.60;6.03;;;21.30;92.40;;;;;;5033096;28;20521;-72
2022/05/14 00:49:00;;;;;;;8.02;5.43;;;21.30;92.50;;;;;;5000086;28;20107;-71
2022/05/14 00:51:32;;;;;;;8.68;5.70;;;21.30;92.60;;;;;;5052390;28;20647;-71
2022/05/14 00:54:10;;;;;;;11.30;5.05;;;21.30;92.70;;;;;;5046367;28;20053;-71
2022/05/14 00:56:44;;;;;;;7.00;4.90;;;21.20;92.80;;;;;;5016325;28;20116;-72
2022/05/14 00:59:15;;;;;;;11.00;5.68;;;21.20;93.00;;;;;;4999956;28;20099;-72
2022/05/14 01:01:44;;;;;;;12.23;5.20;;;21.00;93.20;;;;;;5016175;28;20143;-71
2022/05/14 01:04:14;;;;;;;9.57;5.70;;;21.00;93.30;;;;;;5030667;28;20491;-72
2022/05/14 01:06:50;;;;;;;9.15;6.20;;;21.00;93.40;;;;;;5051581;28;20118;-72
2022/05/14 01:09:18;;;;;;;9.75;6.22;;;21.00;93.50;;;;;;5051822;28;20506;-71
2022/05/14 01:11:48;;;;;;;13.95;6.45;;;21.00;93.80;;;;;;5051597;28;20056;-73
2022/05/14 01:14:16;;;;;;;10.25;5.97;;;21.10;94.20;;;;;;5035146;28;20410;-73
2022/05/14 01:16:44;;;;;;;11.18;5.30;;;21.10;94.10;;;;;;5035500;28;20094;-71
2022/05/14 01:19:13;;;;;;;10.32;5.93;;;21.20;94.20;;;;;;5046680;28;20064;-72
2022/05/14 01:22:11;;;;;;;10.13;4.95;;;21.20;94.20;;;;;;5039340;28;20394;-72
2022/05/14 01:27:52;;;;;;;7.50;4.80;;;21.20;94.40;;;;;;5065252;28;20048;-72
2022/05/14 01:30:23;;;;;;;12.32;6.18;;;21.20;94.40;;;;;;5064807;28;20090;-73
2022/05/14 01:33:04;;;;;;;9.30;6.07;;;21.20;94.50;;;;;;5051088;28;20056;-71
2022/05/14 01:35:40;;;;;;;9.07;5.82;;;21.30;94.60;;;;;;5069398;28;20052;-71
2022/05/14 01:38:10;;;;;;;10.98;5.55;;;21.30;94.60;;;;;;5037671;28;20514;-71
2022/05/14 01:40:39;;;;;;;8.05;5.78;;;21.20;94.60;;;;;;5038917;28;20052;-71
2022/05/14 01:43:07;;;;;;;9.27;6.05;;;21.20;94.80;;;;;;5035274;28;20563;-71
2022/05/14 01:45:35;;;;;;;6.55;5.35;;;21.20;95.00;;;;;;5034772;28;20527;-72
2022/05/14 01:48:04;;;;;;;9.60;6.47;;;21.20;95.00;;;;;;5035501;28;20407;-70
2022/05/14 01:50:33;;;;;;;9.18;6.57;;;21.20;95.20;;;;;;5054223;28;20044;-72
2022/05/14 01:53:01;;;;;;;9.52;6.50;;;21.20;95.30;;;;;;5070286;28;20049;-72
2022/05/14 01:55:29;;;;;;;10.85;6.43;;;21.20;95.50;;;;;;5038194;28;20070;-71
2022/05/14 01:57:57;;;;;;;12.35;6.38;;;21.20;95.60;;;;;;5068209;28;20506;-72
2022/05/14 02:00:33;;;;;;;8.02;5.65;;;21.20;95.70;;;;;;5051356;28;20193;-74
2022/05/14 02:03:00;;;;;;;18.98;6.30;;;21.20;96.00;;;;;;5050989;28;20063;-71
2022/05/14 02:05:28;;;;;;;9.57;6.70;;;21.20;96.10;;;;;;5033813;28;20072;-72
2022/05/14 02:07:59;;;;;;;8.65;5.47;;;21.20;96.20;;;;;;5034900;28;20072;-72
2022/05/14 02:10:27;;;;;;;11.45;6.07;;;21.20;96.30;;;;;;5051195;28;20139;-72
2022/05/14 02:12:55;;;;;;;12.45;6.50;;;21.20;96.40;;;;;;5042996;28;20416;-72
2022/05/14 02:15:23;;;;;;;13.30;6.20;;;21.20;96.50;;;;;;5034697;28;20048;-73
2022/05/14 02:17:51;;;;;;;10.98;5.72;;;21.10;96.60;;;;;;5040728;28;20044;-72
2022/05/14 02:20:19;;;;;;;12.63;6.55;;;21.10;96.70;;;;;;5054460;28;20070;-72
2022/05/14 02:22:47;;;;;;;9.77;6.32;;;21.10;96.80;;;;;;5050870;28;20474;-73
2022/05/14 02:25:14;;;;;;;10.43;5.82;;;21.10;96.80;;;;;;5062909;28;20178;-74
2022/05/14 02:27:43;;;;;;;11.52;6.97;;;21.00;97.00;;;;;;5036087;28;20135;-72
2022/05/14 02:30:14;;;;;;;9.77;6.22;;;21.00;97.10;;;;;;5037910;28;20409;-72
2022/05/14 02:32:42;;;;;;;12.75;6.35;;;21.00;97.20;;;;;;5037273;28;20044;-72
2022/05/14 02:35:10;;;;;;;8.90;6.85;;;21.00;97.40;;;;;;5054381;28;20052;-73
2022/05/14 02:37:38;;;;;;;11.43;6.63;;;21.00;97.50;;;;;;5055070;28;20079;-72
2022/05/14 02:40:06;;;;;;;13.23;7.85;;;21.00;97.70;;;;;;5055710;28;20573;-71
2022/05/14 02:42:34;;;;;;;10.43;6.93;;;20.90;97.80;;;;;;5038910;28;20535;-71
2022/05/14 02:45:02;;;;;;;10.95;6.43;;;20.90;97.90;;;;;;5071188;28;20192;-71
2022/05/14 02:47:30;;;;;;;9.77;6.63;;;20.90;98.10;;;;;;5071051;28;20117;-72
2022/05/14 02:49:58;;;;;;;11.45;5.65;;;20.90;98.20;;;;;;5055232;28;20452;-71
2022/05/14 02:52:26;;;;;;;10.43;6.15;;;20.90;98.20;;;;;;5072007;28;20039;-71
2022/05/14 02:54:53;;;;;;;10.75;6.63;;;20.90;98.30;;;;;;5072307;28;20409;-71
2022/05/14 02:57:21;;;;;;;10.15;6.70;;;20.90;98.30;;;;;;5055772;28;20457;-72
2022/05/14 02:59:49;;;;;;;11.85;7.20;;;20.90;98.40;;;;;;5072010;28;20040;-72
2022/05/14 03:02:17;;;;;;;10.20;6.88;;;20.90;98.50;;;;;;5048229;28;20043;-72
2022/05/14 03:04:47;;;;;;;12.27;6.28;;;20.80;98.60;;;;;;5055752;28;20056;-72
2022/05/14 03:07:16;;;;;;;10.35;6.93;;;20.80;98.70;;;;;;5038865;28;20080;-72
2022/05/14 03:09:44;;;;;;;12.52;7.00;;;20.80;98.70;;;;;;5038816;28;20376;-71
2022/05/14 03:12:13;;;;;;;11.23;7.18;;;20.80;98.70;;;;;;5057408;28;20059;-71
2022/05/14 03:14:42;;;;;;;9.75;6.30;;;20.80;98.70;;;;;;5058783;28;20091;-71
2022/05/14 03:17:10;;;;;;;10.25;6.45;;;20.70;98.60;;;;;;5042589;28;20765;-72
2022/05/14 03:19:37;;;;;;;11.80;6.18;;;20.70;98.50;;;;;;5075288;28;20063;-72
2022/05/14 03:22:05;;;;;;;17.23;6.80;;;20.60;98.40;;;;;;5042590;28;20059;-71
2022/05/14 03:24:36;;;;;;;7.95;6.20;;;20.60;98.30;;;;;;5058138;28;20048;-72
2022/05/14 03:27:06;;;;;;;10.40;5.25;;;20.60;98.30;;;;;;5058473;28;20048;-72
2022/05/14 03:29:35;;;;;;;9.93;6.30;;;20.50;98.10;;;;;;5074808;28;20504;-71
2022/05/14 03:32:03;;;;;;;11.85;6.32;;;20.50;98.00;;;;;;5074939;28;20028;-72
2022/05/14 03:34:32;;;;;;;10.27;6.75;;;20.50;98.00;;;;;;5075255;28;20082;-72
2022/05/14 03:37:00;;;;;;;8.02;5.43;;;20.50;98.20;;;;;;5058403;28;20143;-72
2022/05/14 03:39:28;;;;;;;11.00;6.03;;;20.50;98.50;;;;;;5057858;28;20135;-73
2022/05/14 03:41:55;;;;;;;10.20;7.13;;;20.50;98.70;;;;;;5058322;28;20499;-72
2022/05/14 03:44:23;;;;;;;10.68;6.65;;;20.50;99.00;;;;;;5092706;28;20054;-72
2022/05/14 03:46:51;;;;;;;9.57;6.63;;;20.50;99.30;;;;;;5041822;28;20417;-74
2022/05/14 03:49:19;;;;;;;10.20;6.25;;;20.50;99.40;;;;;;5074721;28;20094;-71
2022/05/14 03:51:47;;;;;;;13.38;7.50;;;20.50;99.50;;;;;;5057522;28;20077;-71
2022/05/14 03:54:15;;;;;;;10.23;6.93;;;20.60;99.70;;;;;;5075079;28;20573;-72
2022/05/14 03:56:43;;;;;;;14.32;7.22;;;20.60;99.70;;;;;;5041906;28;20059;-72
2022/05/14 03:59:11;;;;;;;10.23;7.57;;;20.60;99.60;;;;;;5056649;28;20559;-71
2022/05/14 04:01:39;;;;;;;15.43;7.07;;;20.60;99.60;;;;;;5073884;28;20084;-71
2022/05/14 04:04:07;;;;;;;10.70;6.45;;;20.60;99.40;;;;;;5057304;28;20047;-72
2022/05/14 04:06:35;;;;;;;13.25;6.50;;;20.60;99.20;;;;;;5057891;28;20040;-72
2022/05/14 04:09:03;;;;;;;11.70;7.25;;;20.60;99.20;;;;;;5074597;28;20040;-71
2022/05/14 04:11:32;;;;;;;8.32;5.20;;;20.60;99.00;;;;;;5040862;28;20052;-71
2022/05/14 04:14:00;;;;;;;9.30;7.35;;;20.60;98.90;;;;;;5056809;28;20040;-71
2022/05/14 04:16:27;;;;;;;8.63;5.25;;;20.70;98.70;;;;;;5057664;28;20497;-72
2022/05/14 04:18:56;;;;;;;8.25;4.85;;;20.70;97.80;;;;;;5057548;28;20056;-72
2022/05/14 04:21:23;;;;;;;12.15;5.60;;;20.70;97.00;;;;;;5041093;28;20486;-72
2022/05/14 04:23:51;;;;;;;9.48;5.82;;;20.80;96.60;;;;;;5057396;28;20143;-71
2022/05/14 04:26:22;;;;;;;7.28;4.80;;;20.80;96.00;;;;;;5073324;28;20044;-71
2022/05/14 04:28:50;;;;;;;9.23;4.53;;;20.90;95.40;;;;;;5056668;28;20505;-72
2022/05/14 04:31:21;;;;;;;6.88;4.80;;;21.10;95.00;;;;;;5073708;28;20051;-72
2022/05/14 04:33:49;;;;;;;8.10;4.55;;;21.20;94.40;;;;;;5073580;28;20040;-72
2022/05/14 04:36:18;;;;;;;10.30;5.13;;;21.30;93.70;;;;;;5056383;28;20036;-74
2022/05/14 04:38:47;;;;;;;6.10;4.50;;;21.50;92.80;;;;;;5066829;28;20049;-72
2022/05/14 04:41:15;;;;;;;6.78;3.97;;;21.70;92.30;;;;;;5035192;28;20048;-72
2022/05/14 04:43:42;;;;;;;11.27;4.05;;;21.80;91.90;;;;;;5067942;28;20050;-72
2022/05/14 04:46:10;;;;;;;6.00;4.28;;;21.90;91.50;;;;;;5054579;28;20052;-72
2022/05/14 04:48:38;;;;;;;6.60;3.78;;;22.10;91.10;;;;;;5052295;28;20055;-72
2022/05/14 04:51:06;;;;;;;5.63;3.88;;;22.20;90.80;;;;;;5072730;28;20056;-72
2022/05/14 04:53:34;;;;;;;5.38;3.63;;;22.40;90.50;;;;;;5050562;28;20044;-72
2022/05/14 04:56:01;;;;;;;5.60;3.47;;;22.50;89.90;;;;;;5055149;28;20050;-71
2022/05/14 04:58:29;;;;;;;8.55;3.88;;;22.60;89.10;;;;;;5068114;28;20044;-72
2022/05/14 05:00:57;;;;;;;6.43;3.58;;;22.80;89.00;;;;;;5035749;28;20054;-71
2022/05/14 05:03:27;;;;;;;6.03;3.75;;;22.90;89.10;;;;;;5055622;28;20099;-73
2022/05/14 05:06:00;;;;;;;6.53;4.10;;;23.00;89.00;;;;;;5055690;28;20052;-72
2022/05/14 05:08:30;;;;;;;7.43;4.47;;;23.20;88.30;;;;;;5084996;28;20048;-72
2022/05/14 05:10:59;;;;;;;4.88;3.47;;;23.30;86.80;;;;;;5035842;28;20040;-71
2022/05/14 05:13:29;;;;;;;6.47;4.40;;;23.40;86.50;;;;;;5054728;28;20090;-71
2022/05/14 05:15:57;;;;;;;6.95;4.10;;;23.60;86.10;;;;;;5056484;28;20503;-72
2022/05/14 05:18:25;;;;;;;7.05;3.80;;;23.80;85.10;;;;;;5056546;28;20129;-72
2022/05/14 05:20:54;;;;;;;7.18;4.15;;;23.90;84.10;;;;;;5073025;28;20383;-71
2022/05/14 05:23:24;;;;;;;14.27;4.28;;;24.10;83.60;;;;;;5091178;28;20036;-71
2022/05/14 05:25:52;;;;;;;6.05;3.95;;;24.20;83.20;;;;;;5055824;28;20498;-72
2022/05/14 05:28:20;;;;;;;7.55;5.50;;;24.30;82.90;;;;;;5073226;28;20619;-72
2022/05/14 05:30:48;;;;;;;5.90;4.63;;;24.50;83.00;;;;;;5072095;28;20048;-72
2022/05/14 05:33:22;;;;;;;7.03;4.28;;;24.60;82.90;;;;;;5055914;28;20725;-73
2022/05/14 05:35:50;;;;;;;11.15;4.90;;;24.60;83.00;;;;;;5039860;28;20067;-72
2022/05/14 05:38:18;;;;;;;7.15;4.47;;;24.60;83.80;;;;;;5072556;28;20059;-70
2022/05/14 05:40:45;;;;;;;8.23;4.80;;;24.70;83.70;;;;;;5051874;28;20045;-71
2022/05/14 05:43:13;;;;;;;11.05;5.32;;;24.80;83.90;;;;;;5047313;28;20059;-71
2022/05/14 05:45:46;;;;;;;14.63;5.88;;;24.80;83.90;;;;;;5052089;28;20041;-72
2022/05/14 05:48:13;;;;;;;8.15;4.65;;;25.00;84.40;;;;;;5019289;28;20048;-72
2022/05/14 05:50:43;;;;;;;7.82;4.57;;;25.00;84.80;;;;;;5052660;28;20080;-72
2022/05/14 05:53:10;;;;;;;11.27;5.28;;;25.10;85.00;;;;;;5035459;28;20048;-71
2022/05/14 05:58:24;;;;;;;8.18;4.97;;;25.40;85.30;;;;;;5035877;28;20052;-71
2022/05/14 06:00:52;;;;;;;9.07;4.70;;;25.50;85.80;;;;;;5052452;28;20119;-72
2022/05/14 06:03:20;;;;;;;8.00;5.32;;;25.50;85.90;;;;;;5035006;28;20502;-71
2022/05/14 06:05:47;;;;;;;8.40;4.80;;;25.60;86.00;;;;;;5034400;28;20098;-73
2022/05/14 06:08:19;;;;;;;11.43;5.47;;;25.60;86.00;;;;;;5035383;28;20079;-72
2022/05/14 06:10:46;;;;;;;18.65;6.10;;;25.70;86.10;;;;;;5036220;28;20070;-72
2022/05/14 06:13:14;;;;;;;9.38;5.60;;;25.80;86.10;;;;;;5035927;28;20052;-71
2022/05/14 06:15:42;;;;;;;7.60;4.53;;;25.90;85.90;;;;;;5035418;28;20044;-71
2022/05/14 06:18:10;;;;;;;8.70;4.82;;;26.00;86.00;;;;;;5035434;28;20053;-72
2022/05/14 06:20:38;;;;;;;7.55;4.95;;;26.00;86.10;;;;;;5052550;28;20079;-71
2022/05/14 06:23:07;;;;;;;8.23;4.75;;;25.90;86.30;;;;;;5052427;28;20102;-71
2022/05/14 06:25:36;;;;;;;6.00;4.18;;;26.00;86.20;;;;;;5051900;28;20033;-72
2022/05/14 06:28:04;;;;;;;6.70;4.70;;;26.00;85.80;;;;;;5051958;28;20051;-71
2022/05/14 06:30:32;;;;;;;9.85;5.55;;;26.10;85.80;;;;;;5032716;28;20052;-72
2022/05/14 06:33:05;;;;;;;8.85;5.28;;;26.20;86.00;;;;;;5052558;28;20064;-71
2022/05/14 06:35:35;;;;;;;9.30;4.60;;;26.30;86.20;;;;;;5069817;28;20123;-72
2022/05/14 06:38:04;;;;;;;7.70;5.03;;;26.50;86.20;;;;;;5071431;28;20391;-72
2022/05/14 06:40:31;;;;;;;6.40;5.10;;;26.60;85.80;;;;;;5055626;28;20762;-71
2022/05/14 06:42:59;;;;;;;5.50;4.25;;;26.70;85.10;;;;;;5038859;28;20049;-71
2022/05/14 06:45:27;;;;;;;11.95;6.05;;;26.90;84.00;;;;;;5038471;28;20062;-70
2022/05/14 06:47:55;;;;;;;12.32;4.97;;;27.10;83.50;;;;;;5056095;28;20052;-71
2022/05/14 06:50:25;;;;;;;9.52;4.68;;;27.10;82.70;;;;;;5023266;28;20059;-71
2022/05/14 06:52:57;;;;;;;8.73;4.40;;;27.20;82.30;;;;;;5022738;28;20135;-72
2022/05/14 06:55:30;;;;;;;9.55;5.50;;;27.20;82.70;;;;;;5055795;28;20044;-71
2022/05/14 06:57:58;;;;;;;7.07;4.25;;;27.30;82.50;;;;;;5039447;28;20048;-71
2022/05/14 07:00:26;;;;;;;8.95;4.72;;;27.40;82.20;;;;;;5055307;28;20045;-71
2022/05/14 07:06:37;;;;;;;8.10;3.75;;;27.50;81.60;;;;;;5039007;28;20495;-72
2022/05/14 07:08:29;;;;;;;;;;;27.50;78.60;;;;;;5055688;28;20101;-71
2022/05/14 07:10:56;;;;;;;7.30;3.40;;;27.40;78.30;;;;;;5055559;28;19924;-72
2022/05/14 07:13:24;;;;;;;6.72;3.15;;;27.50;78.10;;;;;;5055293;28;20040;-72
2022/05/14 07:15:52;;;;;;;7.43;3.88;;;27.50;77.10;;;;;;5055233;28;20460;-71
2022/05/14 07:18:19;;;;;;;8.20;3.75;;;27.60;75.90;;;;;;5055132;28;20051;-71
2022/05/14 07:20:47;;;;;;;7.68;3.45;;;27.60;75.70;;;;;;5055074;28;20407;-72
2022/05/14 07:23:15;;;;;;;6.32;3.45;;;27.60;74.60;;;;;;5021993;28;20170;-72
2022/05/14 07:25:44;;;;;;;4.43;2.95;;;27.70;74.20;;;;;;5038190;28;20502;-72
2022/05/14 07:28:13;;;;;;;5.80;2.90;;;27.70;73.80;;;;;;5054844;28;20057;-72
2022/05/14 07:30:41;;;;;;;5.75;2.58;;;27.70;73.90;;;;;;5050289;28;20445;-72
2022/05/14 07:33:08;;;;;;;6.28;2.92;;;27.80;73.80;;;;;;5083928;28;20196;-72
2022/05/14 07:35:37;;;;;;;4.68;2.80;;;27.80;73.30;;;;;;5038442;28;20055;-72
2022/05/14 07:38:06;;;;;;;7.22;2.72;;;27.80;72.80;;;;;;5072916;28;20041;-73
2022/05/14 07:40:36;;;;;;;9.73;3.80;;;27.90;73.40;;;;;;5054462;28;20089;-72
2022/05/14 07:43:10;;;;;;;6.15;3.90;;;28.00;72.90;;;;;;5038251;28;20512;-71
2022/05/14 07:46:01;;;;;;;3.75;2.60;;;28.20;72.70;;;;;;5045729;28;20653;-73
2022/05/14 07:48:33;;;;;;;4.95;3.65;;;28.20;72.00;;;;;;5037529;28;20753;-72
2022/05/14 07:51:03;;;;;;;6.68;3.20;;;28.20;71.30;;;;;;5109485;28;20048;-72
2022/05/14 07:53:31;;;;;;;7.03;3.38;;;28.30;72.20;;;;;;5057921;28;20046;-73
2022/05/14 07:56:01;;;;;;;5.00;3.05;;;28.50;72.30;;;;;;5074746;28;20075;-72
2022/05/14 07:58:29;;;;;;;4.95;2.88;;;28.60;72.00;;;;;;5075323;28;20049;-71
2022/05/14 08:00:57;;;;;;;5.72;3.30;;;28.60;71.70;;;;;;5094414;28;20047;-72
2022/05/14 08:03:26;;;;;;;7.60;3.00;;;28.60;71.20;;;;;;5112211;28;20455;-71
2022/05/14 08:05:56;;;;;;;10.40;3.55;;;28.60;70.10;;;;;;5099564;28;20051;-73
2022/05/14 08:08:24;;;;;;;5.28;2.65;;;28.60;70.20;;;;;;5069426;28;20566;-72
2022/05/14 08:10:52;;;;;;;5.13;2.47;;;28.60;70.30;;;;;;5083103;28;20406;-72
2022/05/14 08:13:22;;;;;;;5.93;2.30;;;28.70;69.10;;;;;;5075948;28;20050;-71
2022/05/14 08:15:51;;;;;;;5.68;3.05;;;28.70;69.40;;;;;;5076879;28;20051;-72
2022/05/14 08:18:19;;;;;;;5.78;2.83;;;28.70;69.20;;;;;;5066277;28;20119;-71
2022/05/14 08:20:50;;;;;;;4.57;2.78;;;28.80;69.10;;;;;;5054482;28;20056;-74
2022/05/14 08:26:08;;;;;;;5.70;2.95;;;28.90;69.00;;;;;;5059987;28;20048;-71
2022/05/14 08:28:36;;;;;;;6.70;3.05;;;28.80;69.50;;;;;;5089548;28;20043;-71
2022/05/14 08:31:03;;;;;;;4.43;2.38;;;29.00;69.60;;;;;;5053536;28;20752;-73
2022/05/14 08:33:31;;;;;;;5.75;2.85;;;29.00;69.40;;;;;;5055134;28;20440;-71
2022/05/14 08:36:00;;;;;;;6.45;3.28;;;28.90;69.50;;;;;;5040028;28;20062;-73
2022/05/14 08:38:27;;;;;;;5.00;3.30;;;29.00;69.00;;;;;;5071865;28;20102;-71
2022/05/14 08:40:59;;;;;;;3.80;2.42;;;29.00;68.50;;;;;;5073020;28;20085;-71
2022/05/14 08:43:44;;;;;;;7.00;2.65;;;28.90;68.70;;;;;;5042812;28;20052;-71
2022/05/14 08:46:18;;;;;;;11.73;3.15;;;29.00;69.30;;;;;;5053752;28;20498;-71
2022/05/14 08:48:52;;;;;;;5.47;2.77;;;29.00;68.80;;;;;;5056597;28;20577;-72
2022/05/14 08:51:28;;;;;;;11.23;2.92;;;29.00;68.50;;;;;;5056821;28;20689;-71
2022/05/14 08:53:55;;;;;;;6.03;2.63;;;29.00;68.10;;;;;;5070790;28;20047;-71
2022/05/14 08:56:32;;;;;;;7.90;3.08;;;28.90;68.00;;;;;;5056062;28;20131;-71
2022/05/14 08:59:18;;;;;;;4.45;2.28;;;29.00;68.40;;;;;;5053902;28;20070;-71
2022/05/14 09:01:46;;;;;;;6.95;2.90;;;29.10;68.50;;;;;;5053268;28;20040;-71
2022/05/14 09:04:17;;;;;;;5.25;2.60;;;29.20;68.20;;;;;;5051300;28;20486;-71
2022/05/14 09:06:46;;;;;;;4.43;2.67;;;29.10;68.20;;;;;;5071028;28;20051;-72
2022/05/14 09:09:14;;;;;;;4.13;2.28;;;29.00;68.30;;;;;;5058158;28;20139;-71
2022/05/14 09:12:01;;;;;;;8.98;3.13;;;29.10;67.30;;;;;;5074164;28;20090;-71
2022/05/14 09:14:37;;;;;;;7.70;2.00;;;29.20;67.50;;;;;;5088970;28;20043;-71
2022/05/14 09:17:20;;;;;;;4.50;2.38;;;29.30;67.40;;;;;;5070274;28;20051;-72
2022/05/14 09:19:51;;;;;;;6.40;2.83;;;29.30;67.00;;;;;;5047471;28;20398;-71
2022/05/14 09:22:29;;;;;;;5.03;2.47;;;29.40;66.80;;;;;;5053998;28;20505;-71
2022/05/14 09:25:24;;;;;;;6.40;2.50;;;29.40;66.30;;;;;;5065670;28;20047;-70
2022/05/14 09:28:00;;;;;;;4.40;2.35;;;29.20;66.50;;;;;;5065030;28;20054;-68
2022/05/14 09:30:35;;;;;;;6.00;2.75;;;29.30;67.10;;;;;;5062623;28;20045;-68
2022/05/14 09:33:04;;;;;;;5.40;2.38;;;29.40;67.10;;;;;;5066758;28;20039;-69
2022/05/14 09:35:34;;;;;;;5.35;3.08;;;29.40;66.40;;;;;;5092404;28;20044;-67
2022/05/14 09:38:08;;;;;;;4.85;2.78;;;29.50;66.00;;;;;;5081461;28;20044;-68
2022/05/14 09:40:37;;;;;;;4.53;2.67;;;29.50;66.20;;;;;;5052265;28;20048;-68
2022/05/14 09:43:15;;;;;;;10.77;3.30;;;29.50;66.40;;;;;;5051371;28;20058;-68
2022/05/14 09:45:56;;;;;;;4.25;2.38;;;29.60;66.20;;;;;;5089092;28;20056;-68
2022/05/14 09:48:36;;;;;;;4.60;2.58;;;29.60;65.50;;;;;;5074006;28;20630;-68
2022/05/14 09:51:09;;;;;;;10.95;2.47;;;29.60;65.20;;;;;;5090522;28;20389;-68
2022/05/14 09:53:41;;;;;;;5.38;2.20;;;29.70;65.00;;;;;;5069709;28;20499;-68
2022/05/14 09:56:11;;;;;;;4.10;2.25;;;29.70;65.20;;;;;;5077191;28;20087;-68
2022/05/14 09:59:04;;;;;;;6.72;3.00;;;29.60;64.70;;;;;;5084271;28;20044;-71
2022/05/14 10:01:44;;;;;;;7.75;2.22;;;29.40;64.30;;;;;;5079285;28;20048;-68
2022/05/14 10:04:29;;;;;;;7.93;2.67;;;29.40;64.90;;;;;;5059845;28;20086;-69
2022/05/14 10:07:10;;;;;;;6.30;2.88;;;29.40;65.50;;;;;;5071350;28;20048;-72
2022/05/14 10:09:54;;;;;;;4.30;2.83;;;29.30;65.30;;;;;;5084140;28;20124;-70
2022/05/14 10:12:33;;;;;;;8.13;3.92;;;29.40;65.10;;;;;;5054919;28;20038;-69
2022/05/14 10:15:38;;;;;;;5.07;3.05;;;29.40;65.40;;;;;;5045732;28;20036;-68
2022/05/14 10:18:09;;;;;;;9.13;4.40;;;29.50;65.80;;;;;;5040166;28;20126;-70
2022/05/14 10:21:04;;;;;;;6.90;3.70;;;29.40;65.10;;;;;;5096100;28;20041;-68
2022/05/14 10:27:14;;;;;;;7.78;2.50;;;29.60;66.00;;;;;;5080508;28;20040;-68
2022/05/14 10:29:57;;;;;;;4.57;2.45;;;29.60;65.90;;;;;;5070815;28;20475;-67
2022/05/14 10:32:29;;;;;;;6.50;2.92;;;29.50;66.20;;;;;;5088833;28;20045;-68
2022/05/14 10:35:15;;;;;;;6.73;2.90;;;29.60;66.10;;;;;;5052568;28;20052;-68
2022/05/14 10:37:48;;;;;;;4.53;2.45;;;29.70;65.00;;;;;;5107932;28;20077;-68
2022/05/14 10:41:00;;;;;;;9.85;3.03;;;29.70;65.30;;;;;;5079386;28;20504;-68
2022/05/14 10:43:38;;;;;;;4.55;2.80;;;29.70;65.00;;;;;;5008234;28;20160;-68
2022/05/14 10:46:11;;;;;;;8.63;2.60;;;29.70;65.30;;;;;;5007282;28;20048;-68
2022/05/14 10:48:57;;;;;;;5.57;2.47;;;29.70;64.40;;;;;;5065080;28;20058;-68
2022/05/14 10:51:36;;;;;;;5.90;2.55;;;29.70;64.40;;;;;;5090713;28;20122;-68
2022/05/14 10:54:05;;;;;;;9.60;2.80;;;29.70;65.10;;;;;;5067528;28;20516;-68
2022/05/14 10:56:36;;;;;;;9.98;2.95;;;29.70;65.20;;;;;;5052604;28;20055;-68
2022/05/14 10:59:12;;;;;;;4.63;3.20;;;29.70;64.70;;;;;;5035035;28;20084;-69
2022/05/14 11:01:52;;;;;;;5.15;2.60;;;29.70;64.80;;;;;;5056085;28;20048;-68
2022/05/14 11:04:32;;;;;;;6.22;2.10;;;29.50;64.50;;;;;;5066932;28;20059;-69
2022/05/14 11:07:10;;;;;;;5.38;2.80;;;29.60;63.90;;;;;;5085482;28;20075;-68
2022/05/14 11:09:42;;;;;;;5.10;2.65;;;29.70;64.40;;;;;;5104268;28;20043;-68
2022/05/14 11:12:19;;;;;;;7.22;2.28;;;29.70;63.60;;;;;;5055840;28;20531;-69
2022/05/14 11:14:51;;;;;;;11.77;3.85;;;29.60;62.60;;;;;;5083143;28;20180;-67
2022/05/14 11:17:26;;;;;;;7.63;2.88;;;29.70;62.40;;;;;;5094197;28;20079;-69
2022/05/14 11:20:16;;;;;;;7.53;4.27;;;29.70;62.40;;;;;;5072035;28;20489;-67
2022/05/14 11:22:50;;;;;;;7.90;4.05;;;29.70;61.90;;;;;;5036475;28;20462;-68
2022/05/14 11:25:20;;;;;;;5.40;3.95;;;29.70;62.30;;;;;;5101882;28;20051;-68
2022/05/14 11:28:06;;;;;;;4.95;3.20;;;29.70;63.10;;;;;;5094311;28;20054;-70
2022/05/14 11:31:09;;;;;;;33.67;7.22;;;29.60;61.70;;;;;;5072695;28;20054;-67
2022/05/14 11:33:37;;;;;;;92.97;17.95;;;29.60;62.50;;;;;;5085131;28;20051;-70
2022/05/14 11:36:11;;;;;;;40.17;7.05;;;29.70;62.90;;;;;;5049501;28;20090;-68
2022/05/14 11:38:47;;;;;;;4.53;2.72;;;29.70;62.00;;;;;;5088576;28;20079;-69
2022/05/14 11:41:29;;;;;;;6.43;2.80;;;29.70;62.60;;;;;;5076339;28;20162;-69
2022/05/14 11:43:57;;;;;;;12.02;3.38;;;29.80;62.50;;;;;;5054992;28;20053;-69
2022/05/14 11:46:49;;;;;;;4.57;2.45;;;29.80;63.40;;;;;;5075349;28;20044;-68
2022/05/14 11:49:36;;;;;;;5.50;2.53;;;29.90;64.60;;;;;;5101787;28;20160;-68
2022/05/14 11:52:31;;;;;;;11.07;3.10;;;29.80;65.10;;;;;;5078081;28;20055;-68
2022/05/14 11:55:14;;;;;;;5.00;2.92;;;29.60;64.60;;;;;;5096869;28;20050;-68
2022/05/14 11:57:51;;;;;;;7.00;3.17;;;29.30;66.50;;;;;;5082248;28;20036;-68
2022/05/14 12:00:22;;;;;;;4.50;3.33;;;29.20;67.70;;;;;;5096200;28;20482;-68
2022/05/14 12:02:54;;;;;;;8.75;3.30;;;29.00;68.40;;;;;;5079346;28;20044;-69
2022/05/14 12:05:25;;;;;;;7.47;3.20;;;28.90;68.80;;;;;;5064366;28;20051;-69
2022/05/14 12:08:08;;;;;;;7.35;3.53;;;28.80;69.60;;;;;;5048237;28;20055;-68
2022/05/14 12:11:04;;;;;;;3.75;2.58;;;28.50;69.90;;;;;;5063013;28;20142;-67
2022/05/14 12:13:50;;;;;;;4.85;2.33;;;28.50;69.80;;;;;;5072403;28;20382;-67
2022/05/14 12:16:28;;;;;;;6.13;2.42;;;28.40;69.70;;;;;;5064306;28;20040;-67
2022/05/14 12:18:56;;;;;;;8.02;2.67;;;28.50;70.30;;;;;;5060706;28;20056;-69
2022/05/14 12:21:24;;;;;;;5.30;3.42;;;28.30;69.90;;;;;;5057571;28;20052;-72
2022/05/14 12:23:52;;;;;;;5.28;2.83;;;28.30;69.10;;;;;;5051098;28;20048;-68
2022/05/14 12:26:25;;;;;;;7.70;3.85;;;28.30;70.70;;;;;;5068035;28;20183;-67
2022/05/14 12:28:55;;;;;;;7.75;4.10;;;28.40;69.80;;;;;;5086310;28;20040;-68
2022/05/14 12:34:16;;;;;;;11.23;4.90;;;28.40;69.00;;;;;;5032895;28;20049;-68
2022/05/14 12:36:53;;;;;;;8.02;3.70;;;28.40;68.60;;;;;;5060607;28;20052;-67
2022/05/14 12:39:23;;;;;;;10.88;4.75;;;28.30;68.80;;;;;;5069303;28;20504;-68
2022/05/14 12:41:55;;;;;;;15.30;6.50;;;28.30;69.10;;;;;;5070215;28;20051;-68
2022/05/14 12:44:36;;;;;;;9.45;5.00;;;28.40;68.80;;;;;;5098642;28;20046;-68
2022/05/14 12:47:05;;;;;;;8.38;4.32;;;28.40;68.90;;;;;;5075749;28;20159;-68
2022/05/14 12:49:43;;;;;;;10.80;4.40;;;28.40;69.00;;;;;;5083230;28;20040;-67
2022/05/14 12:52:17;;;;;;;7.25;3.53;;;28.40;70.00;;;;;;5075157;28;20233;-68
2022/05/14 12:54:56;;;;;;;7.30;4.35;;;28.50;70.10;;;;;;5074309;28;20055;-68
2022/05/14 12:57:25;;;;;;;9.07;4.88;;;28.50;69.90;;;;;;5068921;28;20153;-72
2022/05/14 12:59:54;;;;;;;12.00;6.30;;;28.50;70.30;;;;;;5047798;28;20048;-68
2022/05/14 13:02:33;;;;;;;7.60;5.13;;;28.40;69.90;;;;;;5056074;28;20052;-68
2022/05/14 13:05:10;;;;;;;5.97;4.43;;;28.30;69.50;;;;;;5060804;28;20131;-71
2022/05/14 13:07:51;;;;;;;7.00;3.92;;;28.20;70.10;;;;;;5044907;28;20064;-68
2022/05/14 13:10:25;;;;;;;4.70;3.60;;;28.30;71.40;;;;;;5062327;28;20052;-68
2022/05/14 13:12:57;;;;;;;6.88;4.53;;;28.30;71.60;;;;;;5064040;28;20486;-69
2022/05/14 13:15:43;;;;;;;9.30;4.90;;;28.20;70.40;;;;;;5041876;28;20097;-68
2022/05/14 13:18:27;;;;;;;7.80;4.93;;;28.20;70.30;;;;;;5078959;28;20052;-69
2022/05/14 13:21:03;;;;;;;7.93;4.57;;;28.20;71.70;;;;;;5065173;28;20044;-68
2022/05/14 13:23:33;;;;;;;6.13;3.60;;;28.10;72.20;;;;;;5094616;28;20047;-68
2022/05/14 13:26:25;;;;;;;7.43;3.35;;;28.10;70.90;;;;;;5065580;28;20044;-68
2022/05/14 13:28:53;;;;;;;10.30;5.45;;;28.20;70.30;;;;;;5082250;28;20055;-68